createdAt,value
2023-01-20T00:01:56.575Z,61.33
2023-01-20T00:05:39.246Z,61.30
2023-01-20T00:09:23.314Z,61.90
2023-01-20T00:13:05.995Z,61.30
2023-01-20T00:16:48.683Z,61.51
2023-01-20T00:20:31.348Z,61.04
2023-01-20T00:24:14.083Z,60.74
2023-01-20T00:28:01.096Z,61.26
2023-01-20T00:31:43.873Z,60.92
2023-01-20T00:35:26.604Z,60.71
2023-01-20T00:39:09.313Z,60.88
2023-01-20T00:42:52.037Z,60.89
2023-01-20T00:46:36.208Z,60.27
2023-01-20T00:50:18.997Z,60.27
2023-01-20T00:54:01.741Z,60.41
2023-01-20T00:57:44.377Z,60.57
2023-01-20T01:01:27.113Z,60.43
2023-01-20T01:05:11.520Z,60.56
2023-01-20T01:08:54.537Z,60.61
2023-01-20T01:12:37.284Z,60.20
2023-01-20T01:16:20.251Z,60.88
2023-01-20T01:20:03.525Z,60.92
2023-01-20T01:23:47.724Z,61.31
2023-01-20T01:27:30.687Z,61.03
2023-01-20T01:31:13.402Z,60.85
2023-01-20T01:34:56.112Z,60.37
2023-01-20T01:38:38.782Z,60.58
2023-01-20T01:42:25.668Z,60.30
2023-01-20T01:46:08.479Z,59.95
2023-01-20T01:49:51.148Z,60.04
2023-01-20T01:53:37.855Z,60.14
2023-01-20T01:57:22.076Z,60.85
2023-01-20T02:01:05.249Z,60.97
2023-01-20T02:04:48.666Z,60.93
2023-01-20T02:08:32.837Z,60.94
2023-01-20T02:12:17.407Z,61.00
2023-01-20T02:16:06.057Z,61.11
2023-01-20T02:20:06.674Z,61.53
2023-01-20T02:24:08.923Z,61.30
2023-01-20T02:28:13.233Z,61.59
2023-01-20T02:32:13.179Z,61.50
2023-01-20T02:35:58.300Z,62.08
2023-01-20T02:39:44.473Z,61.94
2023-01-20T02:43:32.614Z,61.66
2023-01-20T02:47:20.503Z,62.25
2023-01-20T02:51:07.665Z,62.07
2023-01-20T02:54:52.550Z,62.19
2023-01-20T02:58:38.813Z,61.95
2023-01-20T03:02:25.643Z,61.63
2023-01-20T03:06:11.556Z,61.95
2023-01-20T03:09:57.188Z,62.22
2023-01-20T03:13:44.838Z,61.73
2023-01-20T03:17:28.893Z,62.86
2023-01-20T03:21:15.109Z,62.08
2023-01-20T03:24:58.125Z,62.59
2023-01-20T03:28:42.409Z,62.39
2023-01-20T03:32:26.922Z,62.94
2023-01-20T03:36:11.152Z,62.22
2023-01-20T03:39:53.904Z,62.44
2023-01-20T03:43:42.394Z,62.45
2023-01-20T03:47:30.248Z,63.30
2023-01-20T03:51:19.597Z,63.73
2023-01-20T03:55:05.872Z,64.25
2023-01-20T03:58:51.616Z,64.48
2023-01-20T04:02:34.605Z,65.63
2023-01-20T04:06:20.499Z,66.09
2023-01-20T04:10:07.074Z,66.41
2023-01-20T04:13:52.605Z,66.73
2023-01-20T04:17:35.488Z,67.61
2023-01-20T04:21:24.565Z,68.35
2023-01-20T04:25:13.191Z,68.59
2023-01-20T04:28:56.046Z,69.32
2023-01-20T04:32:38.765Z,70.82
2023-01-20T04:36:22.740Z,71.18
2023-01-20T04:40:06.028Z,71.56
2023-01-20T04:43:48.799Z,72.84
2023-01-20T04:47:31.685Z,73.22
2023-01-20T04:51:15.125Z,74.18
2023-01-20T04:54:59.140Z,74.60
2023-01-20T04:58:42.439Z,74.61
2023-01-20T05:02:25.312Z,74.93
2023-01-20T05:06:08.175Z,74.64
2023-01-20T05:09:50.819Z,74.91
2023-01-20T05:13:38.525Z,75.71
2023-01-20T05:17:21.220Z,75.80
2023-01-20T05:21:05.524Z,76.24
2023-01-20T05:24:48.185Z,75.81
2023-01-20T05:28:31.175Z,76.42
2023-01-20T05:32:15.221Z,76.41
2023-01-20T05:35:57.906Z,76.17
2023-01-20T05:39:40.597Z,75.84
2023-01-20T05:43:23.274Z,75.63
2023-01-20T05:47:06.041Z,76.44
2023-01-20T05:50:50.318Z,76.31
2023-01-20T05:54:32.996Z,76.33
2023-01-20T05:58:16.095Z,76.57
2023-01-20T06:01:58.990Z,75.98
2023-01-20T06:05:41.722Z,75.22
2023-01-20T06:09:25.823Z,76.14
2023-01-20T06:13:11.963Z,75.44
2023-01-20T06:16:55.307Z,75.58
2023-01-20T06:20:37.923Z,75.08
2023-01-20T06:24:20.611Z,74.12
2023-01-20T06:28:04.832Z,73.93
2023-01-20T06:31:47.785Z,73.54
2023-01-20T06:35:30.668Z,72.70
2023-01-20T06:39:13.795Z,73.05
2023-01-20T06:42:58.687Z,72.14
2023-01-20T06:46:47.977Z,72.94
2023-01-20T06:50:30.945Z,73.11
2023-01-20T06:54:13.610Z,74.31
2023-01-20T06:57:56.276Z,73.90
2023-01-20T07:01:39.463Z,73.61
2023-01-20T07:05:23.553Z,74.66
2023-01-20T07:09:07.673Z,73.74
2023-01-20T07:12:50.373Z,75.16
2023-01-20T07:16:33.717Z,74.32
2023-01-20T07:20:16.567Z,75.53
2023-01-20T07:24:02.534Z,75.91
2023-01-20T07:27:45.219Z,77.00
2023-01-20T07:31:29.363Z,82.53
2023-01-20T07:35:12.421Z,77.93
2023-01-20T07:38:55.501Z,77.49
2023-01-20T07:42:39.539Z,77.63
2023-01-20T07:46:22.625Z,77.78
2023-01-20T07:50:06.095Z,76.46
2023-01-20T07:53:50.928Z,76.26
2023-01-20T07:57:33.621Z,76.37
2023-01-20T08:01:20.423Z,76.21
2023-01-20T08:05:03.151Z,75.58
2023-01-20T08:08:45.843Z,76.35
2023-01-20T08:12:29.335Z,76.39
2023-01-20T08:16:13.764Z,76.68
2023-01-20T08:19:57.798Z,75.78
2023-01-20T08:23:41.876Z,75.78
2023-01-20T08:27:24.557Z,75.31
2023-01-20T08:31:09.406Z,74.55
2023-01-20T08:34:52.924Z,74.20
2023-01-20T08:38:40.265Z,74.52
2023-01-20T08:42:27.441Z,75.05
2023-01-20T08:46:16.125Z,75.45
2023-01-20T08:50:05.427Z,74.75
2023-01-20T08:53:50.163Z,75.33
2023-01-20T08:57:32.904Z,73.77
2023-01-20T09:01:17.446Z,73.48
2023-01-20T09:05:00.145Z,73.32
2023-01-20T09:08:42.942Z,72.30
2023-01-20T09:12:27.069Z,72.96
2023-01-20T09:16:10.240Z,71.76
2023-01-20T09:19:52.916Z,71.77
2023-01-20T09:23:37.092Z,72.28
2023-01-20T09:27:19.760Z,72.51
2023-01-20T09:31:07.925Z,72.00
2023-01-20T09:34:50.665Z,71.97
2023-01-20T09:38:51.175Z,70.36
2023-01-20T09:42:59.588Z,70.00
2023-01-20T09:47:12.781Z,70.47
2023-01-20T09:51:15.081Z,69.72
2023-01-20T09:55:00.607Z,70.40
2023-01-20T09:58:47.594Z,70.52
2023-01-20T10:02:34.984Z,68.97
2023-01-20T10:06:24.823Z,69.79
2023-01-20T10:10:13.095Z,69.75
2023-01-20T10:13:59.881Z,69.84
2023-01-20T10:17:48.613Z,70.82
2023-01-20T10:21:35.478Z,71.21
2023-01-20T10:25:22.515Z,69.83
2023-01-20T10:29:08.985Z,69.42
2023-01-20T10:32:56.886Z,68.64
2023-01-20T10:36:40.210Z,68.02
2023-01-20T10:40:35.228Z,67.32
2023-01-20T10:44:18.059Z,67.01
2023-01-20T10:48:10.283Z,65.73
2023-01-20T10:52:02.762Z,65.85
2023-01-20T10:55:58.013Z,66.65
2023-01-20T10:59:44.240Z,67.81
2023-01-20T11:03:28.923Z,68.59
2023-01-20T11:07:16.966Z,67.37
2023-01-20T11:11:01.043Z,67.35
2023-01-20T11:14:44.308Z,68.00
2023-01-20T11:18:33.876Z,68.56
2023-01-20T11:22:20.789Z,69.08
2023-01-20T11:26:10.064Z,67.98
2023-01-20T11:29:56.607Z,68.35
2023-01-20T11:33:40.666Z,69.04
2023-01-20T11:37:26.578Z,69.75
2023-01-20T11:41:21.658Z,68.17
2023-01-20T11:45:20.941Z,68.98
2023-01-20T11:49:16.987Z,68.88
2023-01-20T11:53:14.650Z,68.47
2023-01-20T11:57:00.891Z,69.14
2023-01-20T12:00:44.985Z,69.34
2023-01-20T12:04:52.837Z,69.35
2023-01-20T12:08:43.411Z,69.29
2023-01-20T12:12:32.965Z,70.50
2023-01-20T12:16:16.469Z,70.51
2023-01-20T12:20:16.421Z,71.18
2023-01-20T12:24:03.178Z,70.98
2023-01-20T12:27:50.097Z,70.36
2023-01-20T12:31:35.892Z,69.91
2023-01-20T12:35:21.849Z,72.10
2023-01-20T12:39:25.105Z,72.25
2023-01-20T12:43:30.081Z,72.32
2023-01-20T12:47:19.672Z,74.00
2023-01-20T12:51:12.990Z,72.76
2023-01-20T12:55:23.654Z,71.68
2023-01-20T12:59:11.694Z,72.44
2023-01-20T13:03:08.394Z,72.74
2023-01-20T13:07:04.250Z,72.68
2023-01-20T13:10:57.326Z,74.63
2023-01-20T13:14:43.052Z,75.37
2023-01-20T13:18:29.336Z,74.95
2023-01-20T13:22:16.351Z,74.86
2023-01-20T13:25:59.813Z,75.05
2023-01-20T13:29:44.798Z,75.64
2023-01-20T13:33:34.076Z,76.08
2023-01-20T13:37:33.014Z,76.32
2023-01-20T13:41:50.498Z,76.99
2023-01-20T13:45:33.237Z,76.94
2023-01-20T13:49:26.670Z,77.37
2023-01-20T13:53:27.958Z,77.11
2023-01-20T13:57:38.437Z,78.39
2023-01-20T14:01:23.940Z,78.71
2023-01-20T14:05:24.917Z,77.67
2023-01-20T14:09:12.993Z,77.73
2023-01-20T14:12:55.688Z,77.07
2023-01-20T14:16:39.696Z,77.67
2023-01-20T14:20:24.688Z,77.14
2023-01-20T14:24:22.331Z,77.57
2023-01-20T14:28:19.213Z,77.40
2023-01-20T14:32:01.925Z,77.40
2023-01-20T14:35:44.966Z,78.34
2023-01-20T14:39:28.801Z,78.54
2023-01-20T14:43:19.532Z,77.71
2023-01-20T14:47:03.337Z,77.48
2023-01-20T14:50:49.752Z,78.77
2023-01-20T14:54:37.446Z,78.12
2023-01-20T14:58:21.383Z,78.74
2023-01-20T15:02:07.056Z,78.81
2023-01-20T15:05:56.195Z,79.58
2023-01-20T15:09:43.110Z,79.78
2023-01-20T15:13:31.116Z,78.64
2023-01-20T15:17:17.680Z,79.26
2023-01-20T15:21:17.222Z,79.07
2023-01-20T15:25:07.319Z,78.71
2023-01-20T15:28:51.467Z,78.89
2023-01-20T15:32:34.161Z,79.51
2023-01-20T15:36:25.114Z,79.17
2023-01-20T15:40:15.217Z,79.44
2023-01-20T15:43:59.404Z,79.82
2023-01-20T15:47:42.607Z,79.18
2023-01-20T15:51:26.082Z,79.55
2023-01-20T15:55:11.935Z,79.29
2023-01-20T15:58:54.931Z,79.97
2023-01-20T16:02:39.042Z,80.59
2023-01-20T16:06:22.501Z,80.68
2023-01-20T16:10:05.535Z,80.22
2023-01-20T16:13:48.195Z,81.00
2023-01-20T16:17:32.464Z,82.55
2023-01-20T16:21:17.772Z,83.37
2023-01-20T16:25:00.431Z,84.86
2023-01-20T16:28:46.021Z,85.71
2023-01-20T16:32:28.683Z,86.57
2023-01-20T16:36:16.384Z,86.51
2023-01-20T16:40:00.654Z,87.12
2023-01-20T16:43:43.511Z,86.98
2023-01-20T16:47:26.192Z,87.53
2023-01-20T16:51:08.893Z,87.45
2023-01-20T16:54:51.619Z,87.85
2023-01-20T16:58:35.647Z,85.86
2023-01-20T17:02:18.378Z,84.52
2023-01-20T17:06:01.035Z,83.57
2023-01-20T17:09:43.877Z,84.60
2023-01-20T17:13:26.555Z,85.95
2023-01-20T17:17:10.630Z,86.03
2023-01-20T17:20:53.332Z,87.83
2023-01-20T17:24:36.006Z,87.59
2023-01-20T17:28:18.706Z,88.45
2023-01-20T17:32:01.507Z,88.64
2023-01-20T17:35:47.185Z,88.66
2023-01-20T17:39:29.903Z,90.60
2023-01-20T17:43:12.589Z,90.08
2023-01-20T17:46:55.287Z,88.34
2023-01-20T17:50:38.895Z,88.40
2023-01-20T17:54:22.914Z,89.27
2023-01-20T17:58:05.550Z,87.75
2023-01-20T18:01:52.201Z,88.63
2023-01-20T18:05:35.831Z,88.50
2023-01-20T18:09:18.451Z,87.88
2023-01-20T18:13:02.513Z,87.97
2023-01-20T18:16:45.219Z,89.23
2023-01-20T18:20:28.211Z,89.34
2023-01-20T18:24:12.617Z,90.79
2023-01-20T18:27:55.385Z,90.46
2023-01-20T18:31:39.867Z,90.65
2023-01-20T18:35:22.639Z,90.84
2023-01-20T18:39:07.081Z,89.88
2023-01-20T18:42:49.714Z,89.78
2023-01-20T18:46:32.406Z,90.26
2023-01-20T18:50:17.926Z,88.87
2023-01-20T18:54:02.221Z,89.76
2023-01-20T18:57:44.979Z,88.71
2023-01-20T19:01:29.737Z,89.00
2023-01-20T19:05:12.403Z,90.26
2023-01-20T19:08:57.323Z,89.87
2023-01-20T19:12:39.979Z,90.96
2023-01-20T19:16:24.141Z,90.27
2023-01-20T19:20:08.054Z,90.34
2023-01-20T19:23:51.149Z,91.00
2023-01-20T19:27:35.156Z,90.74
2023-01-20T19:31:19.564Z,92.46
2023-01-20T19:35:02.237Z,90.42
2023-01-20T19:38:45.073Z,90.79
2023-01-20T19:42:27.717Z,91.68
2023-01-20T19:46:13.026Z,92.52
2023-01-20T19:49:55.683Z,92.38
2023-01-20T19:53:38.409Z,93.43
2023-01-20T19:57:21.100Z,93.20
2023-01-20T20:01:07.512Z,93.20
2023-01-20T20:04:51.539Z,94.11
2023-01-20T20:08:36.177Z,92.90
2023-01-20T20:12:18.857Z,93.35
2023-01-20T20:16:02.763Z,92.73
2023-01-20T20:19:45.487Z,92.30
2023-01-20T20:23:29.873Z,92.86
2023-01-20T20:27:12.604Z,93.82
2023-01-20T20:30:56.454Z,92.49
2023-01-20T20:34:39.198Z,94.53
2023-01-20T20:38:21.908Z,93.89
2023-01-20T20:42:05.994Z,93.23
2023-01-20T20:45:48.737Z,92.44
2023-01-20T20:49:31.927Z,91.96
2023-01-20T20:53:14.613Z,92.91
2023-01-20T20:56:57.286Z,92.36
2023-01-20T21:00:44.934Z,92.98
2023-01-20T21:04:27.629Z,92.96
2023-01-20T21:08:10.268Z,92.56
2023-01-20T21:11:52.953Z,92.06
2023-01-20T21:15:35.780Z,92.70
2023-01-20T21:19:19.848Z,92.68
2023-01-20T21:23:03.394Z,92.71
2023-01-20T21:26:46.168Z,93.38
2023-01-20T21:30:28.925Z,92.91
2023-01-20T21:34:14.472Z,92.77
2023-01-20T21:37:58.547Z,91.80
2023-01-20T21:41:41.585Z,92.11
2023-01-20T21:45:24.305Z,91.72
2023-01-20T21:49:25.077Z,91.57
2023-01-20T21:53:09.146Z,89.23
2023-01-20T21:56:52.388Z,89.47
2023-01-20T22:00:35.090Z,89.69
2023-01-20T22:04:18.231Z,90.18
2023-01-20T22:08:01.278Z,90.30
2023-01-20T22:11:45.281Z,90.44
2023-01-20T22:15:28.245Z,90.58
2023-01-20T22:19:13.001Z,91.53
2023-01-20T22:22:55.842Z,91.61
2023-01-20T22:26:38.546Z,92.92
2023-01-20T22:30:25.289Z,92.87
2023-01-20T22:34:09.203Z,92.20
2023-01-20T22:37:56.211Z,90.80
2023-01-20T22:41:38.967Z,89.76
2023-01-20T22:45:23.100Z,89.35
2023-01-20T22:49:05.932Z,91.07
2023-01-20T22:52:48.658Z,90.95
2023-01-20T22:56:33.555Z,89.52
2023-01-20T23:00:17.497Z,90.26
2023-01-20T23:04:03.374Z,88.86
2023-01-20T23:07:46.070Z,89.92
2023-01-20T23:11:29.066Z,89.90
2023-01-20T23:15:11.961Z,89.95
2023-01-20T23:18:57.277Z,89.95
2023-01-20T23:22:41.421Z,90.58
2023-01-20T23:26:25.380Z,88.27
2023-01-20T23:30:10.179Z,89.43
2023-01-20T23:33:54.557Z,89.49
2023-01-20T23:37:37.355Z,89.70
2023-01-20T23:41:21.572Z,90.64
2023-01-20T23:45:04.499Z,91.20
2023-01-20T23:48:47.551Z,91.74
2023-01-20T23:52:30.350Z,90.80
2023-01-20T23:56:15.475Z,91.74
2023-01-20T23:59:59.497Z,91.31
